createdAt,value
2017-11-19T00:00:30.014Z,1007.29
2017-11-19T00:01:30.007Z,1007.34
2017-11-19T00:02:30.001Z,1007.30
2017-11-19T00:03:30.030Z,1007.30
2017-11-19T00:04:29.990Z,1007.30
2017-11-19T00:05:29.983Z,1007.31
2017-11-19T00:06:29.970Z,1007.30
2017-11-19T00:07:29.966Z,1007.36
2017-11-19T00:08:29.959Z,1007.39
2017-11-19T00:09:29.951Z,1007.39
2017-11-19T00:10:29.950Z,1007.25
2017-11-19T00:11:29.937Z,1007.26
2017-11-19T00:12:29.930Z,1007.21
2017-11-19T00:13:29.922Z,1007.23
2017-11-19T00:14:29.919Z,1007.19
2017-11-19T00:15:29.909Z,1007.17
2017-11-19T00:16:29.901Z,1007.14
2017-11-19T00:17:29.895Z,1007.13
2017-11-19T00:18:29.888Z,1007.10
2017-11-19T00:19:29.877Z,1007.09
2017-11-19T00:20:29.873Z,1007.07
2017-11-19T00:21:29.865Z,1007.13
2017-11-19T00:22:29.860Z,1007.07
2017-11-19T00:23:29.850Z,1007.11
2017-11-19T00:24:29.863Z,1007.15
2017-11-19T00:25:29.837Z,1007.17
2017-11-19T00:26:29.830Z,1007.17
2017-11-19T00:27:29.821Z,1007.18
2017-11-19T00:28:29.816Z,1007.15
2017-11-19T00:29:29.806Z,1007.18
2017-11-19T00:30:29.801Z,1007.12
2017-11-19T00:31:29.797Z,1007.14
2017-11-19T00:32:29.786Z,1007.09
2017-11-19T00:33:29.777Z,1007.14
2017-11-19T00:34:29.769Z,1007.11
2017-11-19T00:35:29.763Z,1007.12
2017-11-19T00:36:29.756Z,1007.11
2017-11-19T00:37:29.750Z,1007.08
2017-11-19T00:38:29.743Z,1007.06
2017-11-19T00:39:29.735Z,1007.02
2017-11-19T00:40:29.727Z,1007.02
2017-11-19T00:41:29.719Z,1007.00
2017-11-19T00:42:29.718Z,1007.00
2017-11-19T00:43:29.704Z,1007.00
2017-11-19T00:44:29.700Z,1007.00
2017-11-19T00:45:29.691Z,1006.94
2017-11-19T00:46:29.685Z,1006.92
2017-11-19T00:47:29.676Z,1006.91
2017-11-19T00:48:29.669Z,1006.91
2017-11-19T00:49:29.662Z,1006.84
2017-11-19T00:50:29.655Z,1006.85
2017-11-19T00:51:29.648Z,1006.76
2017-11-19T00:52:29.643Z,1006.77
2017-11-19T00:53:29.633Z,1006.71
2017-11-19T00:54:29.627Z,1006.65
2017-11-19T00:55:29.619Z,1006.68
2017-11-19T00:56:29.611Z,1006.66
2017-11-19T00:57:29.605Z,1006.70
2017-11-19T00:58:29.595Z,1006.71
2017-11-19T00:59:29.591Z,1006.72
2017-11-19T01:00:29.583Z,1006.73
2017-11-19T01:01:29.577Z,1006.69
2017-11-19T01:02:29.569Z,1006.71
2017-11-19T01:03:29.566Z,1006.72
2017-11-19T01:04:29.566Z,1006.72
2017-11-19T01:05:29.549Z,1006.69
2017-11-19T01:06:29.539Z,1006.68
2017-11-19T01:07:29.533Z,1006.72
2017-11-19T01:08:29.527Z,1006.68
2017-11-19T01:09:29.531Z,1006.73
2017-11-19T01:10:29.517Z,1006.70
2017-11-19T01:11:29.506Z,1006.65
2017-11-19T01:12:29.503Z,1006.67
2017-11-19T01:13:29.494Z,1006.66
2017-11-19T01:14:29.480Z,1006.68
2017-11-19T01:15:29.476Z,1006.66
2017-11-19T01:16:29.470Z,1006.60
2017-11-19T01:17:29.462Z,1006.64
2017-11-19T01:18:29.456Z,1006.55
2017-11-19T01:19:29.455Z,1006.57
2017-11-19T01:20:29.444Z,1006.50
2017-11-19T01:21:29.440Z,1006.50
2017-11-19T01:22:29.464Z,1006.48
2017-11-19T01:23:29.423Z,1006.49
2017-11-19T01:24:29.419Z,1006.51
2017-11-19T01:25:29.409Z,1006.49
2017-11-19T01:26:29.403Z,1006.48
2017-11-19T01:27:29.395Z,1006.54
2017-11-19T01:28:29.390Z,1006.52
2017-11-19T01:29:29.385Z,1006.51
2017-11-19T01:30:29.372Z,1006.50
2017-11-19T01:31:29.364Z,1006.49
2017-11-19T01:32:29.363Z,1006.48
2017-11-19T01:33:29.358Z,1006.44
2017-11-19T01:34:29.344Z,1006.42
2017-11-19T01:35:29.340Z,1006.42
2017-11-19T01:36:29.336Z,1006.39
2017-11-19T01:37:29.335Z,1006.37
2017-11-19T01:38:29.329Z,1006.37
2017-11-19T01:39:29.314Z,1006.35
2017-11-19T01:40:29.306Z,1006.32
2017-11-19T01:41:29.298Z,1006.36
2017-11-19T01:42:29.288Z,1006.36
2017-11-19T01:43:29.285Z,1006.35
2017-11-19T01:44:29.296Z,1006.27
2017-11-19T01:45:29.286Z,1006.30
2017-11-19T01:46:29.264Z,1006.26
2017-11-19T01:47:29.258Z,1006.30
2017-11-19T01:48:29.253Z,1006.26
2017-11-19T01:49:29.245Z,1006.22
2017-11-19T01:50:29.236Z,1006.20
2017-11-19T01:51:29.228Z,1006.20
2017-11-19T01:52:29.236Z,1006.21
2017-11-19T01:53:29.217Z,1006.16
2017-11-19T01:54:29.208Z,1006.15
2017-11-19T01:55:29.204Z,1006.17
2017-11-19T01:56:29.196Z,1006.18
2017-11-19T01:57:29.192Z,1006.15
2017-11-19T01:58:29.188Z,1006.14
2017-11-19T01:59:29.176Z,1006.14
2017-11-19T02:00:29.170Z,1006.12
2017-11-19T02:01:29.177Z,1006.09
2017-11-19T02:02:29.157Z,1006.10
2017-11-19T02:03:29.147Z,1006.09
2017-11-19T02:04:29.143Z,1006.08
2017-11-19T02:05:29.143Z,1006.09
2017-11-19T02:06:29.128Z,1006.10
2017-11-19T02:07:29.125Z,1006.06
2017-11-19T02:08:29.119Z,1006.03
2017-11-19T02:09:29.112Z,1005.99
2017-11-19T02:10:29.110Z,1005.97
2017-11-19T02:11:29.117Z,1005.99
2017-11-19T02:12:29.106Z,1005.97
2017-11-19T02:13:29.086Z,1006.01
2017-11-19T02:14:29.077Z,1006.02
2017-11-19T02:15:29.073Z,1006.02
2017-11-19T02:16:29.067Z,1006.05
2017-11-19T02:17:29.050Z,1006.06
2017-11-19T02:18:29.047Z,1006.08
2017-11-19T02:19:29.106Z,1006.04
2017-11-19T02:20:29.034Z,1006.02
2017-11-19T02:21:29.036Z,1005.99
2017-11-19T02:22:29.030Z,1005.97
2017-11-19T02:23:29.022Z,1005.96
2017-11-19T02:24:29.021Z,1005.92
2017-11-19T02:25:29.022Z,1005.94
2017-11-19T02:26:29.012Z,1005.91
2017-11-19T02:27:28.996Z,1005.93
2017-11-19T02:28:28.985Z,1005.91
2017-11-19T02:29:28.983Z,1005.88
2017-11-19T02:30:28.987Z,1005.87
2017-11-19T02:31:28.968Z,1005.87
2017-11-19T02:32:28.970Z,1005.86
2017-11-19T02:33:28.958Z,1005.82
2017-11-19T02:34:28.952Z,1005.85
2017-11-19T02:35:28.945Z,1005.79
2017-11-19T02:36:28.935Z,1005.81
2017-11-19T02:37:28.937Z,1005.85
2017-11-19T02:38:28.930Z,1005.84
2017-11-19T02:39:28.919Z,1005.81
2017-11-19T02:40:28.912Z,1005.84
2017-11-19T02:41:28.906Z,1005.84
2017-11-19T02:42:28.900Z,1005.78
2017-11-19T02:43:28.895Z,1005.82
2017-11-19T02:44:28.886Z,1005.86
2017-11-19T02:45:28.887Z,1005.84
2017-11-19T02:46:28.875Z,1005.83
2017-11-19T02:47:28.868Z,1005.83
2017-11-19T02:48:28.865Z,1005.85
2017-11-19T02:49:28.857Z,1005.88
2017-11-19T02:50:28.849Z,1005.90
2017-11-19T02:51:28.843Z,1005.85
2017-11-19T02:52:28.835Z,1005.87
2017-11-19T02:53:28.835Z,1005.90
2017-11-19T02:54:28.825Z,1005.85
2017-11-19T02:55:28.824Z,1005.85
2017-11-19T02:56:28.812Z,1005.86
2017-11-19T02:57:28.807Z,1005.87
2017-11-19T02:58:28.796Z,1005.90
2017-11-19T02:59:28.791Z,1005.91
2017-11-19T03:00:28.787Z,1005.87
2017-11-19T03:01:28.781Z,1005.91
2017-11-19T03:02:28.773Z,1005.88
2017-11-19T03:03:28.767Z,1005.88
2017-11-19T03:04:28.760Z,1005.91
2017-11-19T03:05:28.752Z,1005.91
2017-11-19T03:06:28.747Z,1005.90
2017-11-19T03:07:28.740Z,1005.90
2017-11-19T03:08:28.733Z,1005.91
2017-11-19T03:09:28.729Z,1005.89
2017-11-19T03:10:28.726Z,1005.90
2017-11-19T03:11:28.718Z,1005.89
2017-11-19T03:12:28.708Z,1005.89
2017-11-19T03:13:28.710Z,1005.89
2017-11-19T03:14:28.700Z,1005.89
2017-11-19T03:15:28.689Z,1005.88
2017-11-19T03:16:28.685Z,1005.89
2017-11-19T03:17:28.681Z,1005.90
2017-11-19T03:18:28.671Z,1005.89
2017-11-19T03:19:28.666Z,1005.86
2017-11-19T03:20:28.654Z,1005.90
2017-11-19T03:21:28.651Z,1005.87
2017-11-19T03:22:28.645Z,1005.89
2017-11-19T03:23:28.642Z,1005.84
2017-11-19T03:24:28.634Z,1005.86
2017-11-19T03:25:28.627Z,1005.87
2017-11-19T03:26:28.626Z,1005.83
2017-11-19T03:27:28.613Z,1005.88
2017-11-19T03:28:28.607Z,1005.89
2017-11-19T03:29:28.636Z,1005.90
2017-11-19T03:30:28.596Z,1005.92
2017-11-19T03:31:28.596Z,1005.95
2017-11-19T03:32:28.584Z,1005.91
2017-11-19T03:33:28.588Z,1005.97
2017-11-19T03:34:28.569Z,1006.00
2017-11-19T03:35:28.561Z,1005.96
2017-11-19T03:36:28.558Z,1005.99
2017-11-19T03:37:28.550Z,1006.03
2017-11-19T03:38:28.548Z,1006.03
2017-11-19T03:39:28.536Z,1006.07
2017-11-19T03:40:28.531Z,1006.12
2017-11-19T03:41:28.526Z,1006.22
2017-11-19T03:42:28.517Z,1006.27
2017-11-19T03:43:28.511Z,1006.29
2017-11-19T03:44:28.509Z,1006.34
2017-11-19T03:45:28.498Z,1006.34
2017-11-19T03:46:28.492Z,1006.33
2017-11-19T03:47:28.486Z,1006.33
2017-11-19T03:48:28.482Z,1006.27
2017-11-19T03:49:28.471Z,1006.33
2017-11-19T03:50:28.467Z,1006.30
2017-11-19T03:51:28.462Z,1006.32
2017-11-19T03:52:28.455Z,1006.29
2017-11-19T03:53:28.447Z,1006.31
2017-11-19T03:54:28.443Z,1006.29
2017-11-19T03:55:28.430Z,1006.29
2017-11-19T03:56:28.428Z,1006.34
2017-11-19T03:57:28.424Z,1006.27
2017-11-19T03:58:28.416Z,1006.27
2017-11-19T03:59:28.409Z,1006.31
2017-11-19T04:00:28.403Z,1006.27
2017-11-19T04:01:28.400Z,1006.26
2017-11-19T04:02:28.389Z,1006.21
2017-11-19T04:03:28.383Z,1006.24
2017-11-19T04:04:28.377Z,1006.20
2017-11-19T04:05:28.370Z,1006.21
2017-11-19T04:06:28.365Z,1006.25
2017-11-19T04:07:28.358Z,1006.30
2017-11-19T04:08:28.352Z,1006.29
2017-11-19T04:09:28.346Z,1006.41
2017-11-19T04:10:28.341Z,1006.38
2017-11-19T04:11:28.331Z,1006.33
2017-11-19T04:12:28.326Z,1006.29
2017-11-19T04:13:28.318Z,1006.24
2017-11-19T04:14:28.313Z,1006.20
2017-11-19T04:15:28.305Z,1006.23
2017-11-19T04:16:28.300Z,1006.21
2017-11-19T04:17:28.293Z,1006.23
2017-11-19T04:18:28.289Z,1006.24
2017-11-19T04:19:28.278Z,1006.24
2017-11-19T04:20:28.272Z,1006.29
2017-11-19T04:21:28.264Z,1006.29
2017-11-19T04:22:28.264Z,1006.28
2017-11-19T04:23:28.253Z,1006.32
2017-11-19T04:24:28.245Z,1006.28
2017-11-19T04:25:28.241Z,1006.29
2017-11-19T04:26:28.229Z,1006.29
2017-11-19T04:27:28.225Z,1006.22
2017-11-19T04:28:28.218Z,1006.25
2017-11-19T04:29:28.213Z,1006.27
2017-11-19T04:30:28.206Z,1006.23
2017-11-19T04:31:28.198Z,1006.21
2017-11-19T04:32:28.191Z,1006.26
2017-11-19T04:33:28.189Z,1006.30
2017-11-19T04:34:28.177Z,1006.32
2017-11-19T04:35:28.169Z,1006.32
2017-11-19T04:36:28.165Z,1006.33
2017-11-19T04:37:28.159Z,1006.38
2017-11-19T04:38:28.151Z,1006.37
2017-11-19T04:39:28.145Z,1006.42
2017-11-19T04:40:28.140Z,1006.40
2017-11-19T04:41:28.136Z,1006.46
2017-11-19T04:42:28.124Z,1006.48
2017-11-19T04:43:28.120Z,1006.49
2017-11-19T04:44:28.111Z,1006.52
2017-11-19T04:45:28.106Z,1006.56
2017-11-19T04:46:28.097Z,1006.66
2017-11-19T04:47:28.092Z,1006.71
2017-11-19T04:48:28.087Z,1006.67
2017-11-19T04:49:28.083Z,1006.73
2017-11-19T04:50:28.070Z,1006.69
2017-11-19T04:51:28.066Z,1006.68
2017-11-19T04:52:28.062Z,1006.68
2017-11-19T04:53:28.055Z,1006.69
2017-11-19T04:54:28.047Z,1006.68
2017-11-19T04:55:28.038Z,1006.71
2017-11-19T04:56:28.034Z,1006.67
2017-11-19T04:57:28.027Z,1006.70
2017-11-19T04:58:28.018Z,1006.70
2017-11-19T04:59:28.013Z,1006.72
2017-11-19T05:00:28.004Z,1006.72
2017-11-19T05:01:28.004Z,1006.76
2017-11-19T05:02:27.994Z,1006.75
2017-11-19T05:03:27.985Z,1006.76
2017-11-19T05:04:27.978Z,1006.76
2017-11-19T05:05:27.976Z,1006.73
2017-11-19T05:06:27.963Z,1006.72
2017-11-19T05:07:27.960Z,1006.73
2017-11-19T05:08:27.954Z,1006.71
2017-11-19T05:09:27.947Z,1006.72
2017-11-19T05:10:27.939Z,1006.72
2017-11-19T05:11:27.947Z,1006.78
2017-11-19T05:12:27.929Z,1006.82
2017-11-19T05:13:27.926Z,1006.85
2017-11-19T05:14:27.914Z,1006.83
2017-11-19T05:15:27.911Z,1006.80
2017-11-19T05:16:27.900Z,1006.79
2017-11-19T05:17:27.892Z,1006.82
2017-11-19T05:18:27.889Z,1006.83
2017-11-19T05:19:27.885Z,1006.83
2017-11-19T05:20:27.874Z,1006.85
2017-11-19T05:21:27.865Z,1006.86
2017-11-19T05:22:27.861Z,1006.90
2017-11-19T05:23:27.856Z,1006.93
2017-11-19T05:24:27.849Z,1006.92
2017-11-19T05:25:27.843Z,1006.93
2017-11-19T05:26:27.834Z,1006.94
2017-11-19T05:27:27.828Z,1006.94
2017-11-19T05:28:27.824Z,1007.01
2017-11-19T05:29:27.821Z,1006.96
2017-11-19T05:30:27.808Z,1006.97
2017-11-19T05:31:27.804Z,1006.94
2017-11-19T05:32:27.795Z,1007.00
2017-11-19T05:33:27.788Z,1006.98
2017-11-19T05:34:27.780Z,1006.97
2017-11-19T05:35:27.775Z,1006.98
2017-11-19T05:36:27.770Z,1006.98
2017-11-19T05:37:27.759Z,1007.00
2017-11-19T05:38:27.755Z,1007.03
2017-11-19T05:39:27.746Z,1007.06
2017-11-19T05:40:27.741Z,1007.14
2017-11-19T05:41:27.736Z,1007.08
2017-11-19T05:42:27.728Z,1007.07
2017-11-19T05:43:27.719Z,1007.09
2017-11-19T05:44:27.734Z,1007.08
2017-11-19T05:45:27.712Z,1007.10
2017-11-19T05:46:27.704Z,1007.11
2017-11-19T05:47:27.696Z,1007.13
2017-11-19T05:48:27.690Z,1007.15
2017-11-19T05:49:27.681Z,1007.19
2017-11-19T05:50:27.677Z,1007.18
2017-11-19T05:51:27.668Z,1007.24
2017-11-19T05:52:27.660Z,1007.22
2017-11-19T05:53:27.655Z,1007.22
2017-11-19T05:54:27.649Z,1007.24
2017-11-19T05:55:27.640Z,1007.24
2017-11-19T05:56:27.636Z,1007.25
2017-11-19T05:57:27.627Z,1007.30
2017-11-19T05:58:27.622Z,1007.25
2017-11-19T05:59:27.614Z,1007.22
2017-11-19T06:00:27.605Z,1007.25
2017-11-19T06:01:27.600Z,1007.21
2017-11-19T06:02:27.594Z,1007.26
2017-11-19T06:03:27.586Z,1007.29
2017-11-19T06:04:27.581Z,1007.30
2017-11-19T06:05:27.576Z,1007.31
2017-11-19T06:06:27.564Z,1007.35
2017-11-19T06:07:27.564Z,1007.38
2017-11-19T06:08:27.551Z,1007.41
2017-11-19T06:09:27.548Z,1007.38
2017-11-19T06:10:27.537Z,1007.37
2017-11-19T06:11:27.532Z,1007.35
2017-11-19T06:12:27.524Z,1007.35
2017-11-19T06:13:27.530Z,1007.39
2017-11-19T06:14:27.508Z,1007.39
2017-11-19T06:15:27.513Z,1007.40
2017-11-19T06:16:27.496Z,1007.37
2017-11-19T06:17:27.493Z,1007.41
2017-11-19T06:18:27.479Z,1007.44
2017-11-19T06:19:27.473Z,1007.42
2017-11-19T06:20:27.467Z,1007.43
2017-11-19T06:21:27.482Z,1007.38
2017-11-19T06:22:27.453Z,1007.42
2017-11-19T06:23:27.446Z,1007.45
2017-11-19T06:24:27.437Z,1007.43
2017-11-19T06:25:27.432Z,1007.47
2017-11-19T06:26:27.422Z,1007.45
2017-11-19T06:27:27.416Z,1007.41
2017-11-19T06:28:27.407Z,1007.42
2017-11-19T06:29:27.413Z,1007.38
2017-11-19T06:30:27.391Z,1007.41
2017-11-19T06:31:27.382Z,1007.46
2017-11-19T06:32:27.379Z,1007.44
2017-11-19T06:33:27.371Z,1007.47
2017-11-19T06:34:27.363Z,1007.52
2017-11-19T06:35:27.354Z,1007.49
2017-11-19T06:36:27.346Z,1007.50
2017-11-19T06:37:27.341Z,1007.53
2017-11-19T06:38:27.330Z,1007.52
2017-11-19T06:39:27.327Z,1007.56
2017-11-19T06:40:27.321Z,1007.55
2017-11-19T06:41:27.309Z,1007.62
2017-11-19T06:42:27.304Z,1007.68
2017-11-19T06:43:27.295Z,1007.70
2017-11-19T06:44:27.291Z,1007.72
2017-11-19T06:45:27.283Z,1007.71
2017-11-19T06:46:27.275Z,1007.76
2017-11-19T06:47:27.265Z,1007.75
2017-11-19T06:48:27.260Z,1007.78
2017-11-19T06:49:27.253Z,1007.81
2017-11-19T06:50:27.245Z,1007.80
2017-11-19T06:51:27.233Z,1007.77
2017-11-19T06:52:27.232Z,1007.80
2017-11-19T06:53:27.251Z,1007.87
2017-11-19T06:54:27.216Z,1007.82
2017-11-19T06:55:27.211Z,1007.86
2017-11-19T06:56:27.202Z,1007.83
2017-11-19T06:57:27.196Z,1007.87
2017-11-19T06:58:27.189Z,1007.87
2017-11-19T06:59:27.181Z,1007.89
2017-11-19T07:00:27.175Z,1007.88
2017-11-19T07:01:27.172Z,1007.92
2017-11-19T07:02:27.160Z,1007.92
2017-11-19T07:03:27.158Z,1008.00
2017-11-19T07:04:27.146Z,1008.00
2017-11-19T07:05:27.139Z,1008.09
2017-11-19T07:06:27.133Z,1008.04
2017-11-19T07:07:27.125Z,1008.01
2017-11-19T07:08:27.118Z,1008.03
2017-11-19T07:09:27.112Z,1008.05
2017-11-19T07:10:27.104Z,1008.08
2017-11-19T07:11:27.097Z,1008.07
2017-11-19T07:12:27.092Z,1008.10
2017-11-19T07:13:27.083Z,1008.10
2017-11-19T07:14:27.078Z,1008.08
2017-11-19T07:15:27.073Z,1008.09
2017-11-19T07:16:27.073Z,1008.13
2017-11-19T07:17:27.058Z,1008.14
2017-11-19T07:18:27.063Z,1008.16
2017-11-19T07:19:27.048Z,1008.17
2017-11-19T07:20:27.038Z,1008.19
2017-11-19T07:21:27.032Z,1008.25
2017-11-19T07:22:27.024Z,1008.30
2017-11-19T07:23:27.015Z,1008.35
2017-11-19T07:24:27.011Z,1008.35
2017-11-19T07:25:27.004Z,1008.41
2017-11-19T07:26:27.001Z,1008.42
2017-11-19T07:27:26.989Z,1008.44
2017-11-19T07:28:26.984Z,1008.42
2017-11-19T07:29:26.980Z,1008.48
2017-11-19T07:30:26.971Z,1008.44
2017-11-19T07:31:26.966Z,1008.48
2017-11-19T07:32:26.955Z,1008.41
2017-11-19T07:33:26.948Z,1008.39
2017-11-19T07:34:26.941Z,1008.44
2017-11-19T07:35:26.941Z,1008.44
2017-11-19T07:36:26.927Z,1008.44
2017-11-19T07:37:26.922Z,1008.47
2017-11-19T07:38:26.913Z,1008.44
2017-11-19T07:39:26.909Z,1008.42
2017-11-19T07:40:26.900Z,1008.41
2017-11-19T07:41:26.901Z,1008.40
2017-11-19T07:42:26.887Z,1008.37
2017-11-19T07:43:26.880Z,1008.37
2017-11-19T07:44:26.876Z,1008.38
2017-11-19T07:45:26.866Z,1008.33
2017-11-19T07:46:26.863Z,1008.34
2017-11-19T07:47:26.853Z,1008.31
2017-11-19T07:48:26.848Z,1008.33
2017-11-19T07:49:26.840Z,1008.32
2017-11-19T07:50:26.830Z,1008.37
2017-11-19T07:51:26.828Z,1008.41
2017-11-19T07:52:26.820Z,1008.49
2017-11-19T07:53:26.815Z,1008.48
2017-11-19T07:54:26.805Z,1008.53
2017-11-19T07:55:26.801Z,1008.53
2017-11-19T07:56:26.794Z,1008.56
2017-11-19T07:57:26.787Z,1008.56
2017-11-19T07:58:26.789Z,1008.59
2017-11-19T07:59:26.777Z,1008.65
2017-11-19T08:00:26.767Z,1008.61
2017-11-19T08:01:26.764Z,1008.61
2017-11-19T08:02:26.752Z,1008.60
2017-11-19T08:03:26.744Z,1008.64
2017-11-19T08:04:26.740Z,1008.68
2017-11-19T08:05:26.731Z,1008.64
2017-11-19T08:06:26.724Z,1008.67
2017-11-19T08:07:26.717Z,1008.69
2017-11-19T08:08:26.710Z,1008.68
2017-11-19T08:09:26.707Z,1008.67
2017-11-19T08:10:26.697Z,1008.66
2017-11-19T08:11:26.689Z,1008.67
2017-11-19T08:12:26.683Z,1008.65
2017-11-19T08:13:26.679Z,1008.65
2017-11-19T08:14:26.670Z,1008.68
2017-11-19T08:15:26.662Z,1008.68
2017-11-19T08:16:26.657Z,1008.60
2017-11-19T08:17:26.650Z,1008.60
2017-11-19T08:18:26.643Z,1008.58
2017-11-19T08:19:26.640Z,1008.63
2017-11-19T08:20:26.633Z,1008.62
2017-11-19T08:21:26.623Z,1008.62
2017-11-19T08:22:26.617Z,1008.66
2017-11-19T08:23:26.610Z,1008.69
2017-11-19T08:24:26.601Z,1008.62
2017-11-19T08:25:26.597Z,1008.69
2017-11-19T08:26:26.595Z,1008.68
2017-11-19T08:27:26.580Z,1008.68
2017-11-19T08:28:26.574Z,1008.74
2017-11-19T08:29:26.565Z,1008.72
2017-11-19T08:30:26.561Z,1008.71
2017-11-19T08:31:26.553Z,1008.76
2017-11-19T08:32:26.563Z,1008.74
2017-11-19T08:33:26.542Z,1008.77
2017-11-19T08:34:26.534Z,1008.73
2017-11-19T08:35:26.526Z,1008.77
2017-11-19T08:36:26.521Z,1008.78
2017-11-19T08:37:26.513Z,1008.75
2017-11-19T08:38:26.507Z,1008.71
2017-11-19T08:39:26.499Z,1008.71
2017-11-19T08:40:26.494Z,1008.76
2017-11-19T08:41:26.493Z,1008.73
2017-11-19T08:42:26.481Z,1008.73
2017-11-19T08:43:26.480Z,1008.77
2017-11-19T08:44:26.479Z,1008.68
2017-11-19T08:45:26.459Z,1008.69
2017-11-19T08:46:26.452Z,1008.70
2017-11-19T08:47:26.446Z,1008.72
2017-11-19T08:48:26.440Z,1008.70
2017-11-19T08:49:26.435Z,1008.70
2017-11-19T08:50:26.428Z,1008.75
2017-11-19T08:51:26.419Z,1008.76
2017-11-19T08:52:26.412Z,1008.79
2017-11-19T08:53:26.406Z,1008.82
2017-11-19T08:54:26.399Z,1008.84
2017-11-19T08:55:26.391Z,1008.88
2017-11-19T08:56:26.386Z,1008.90
2017-11-19T08:57:26.379Z,1008.96
2017-11-19T08:58:26.372Z,1008.97
2017-11-19T08:59:26.368Z,1008.98
2017-11-19T09:00:26.359Z,1008.97
2017-11-19T09:01:26.352Z,1008.92
2017-11-19T09:02:26.341Z,1008.98
2017-11-19T09:03:26.336Z,1008.93
2017-11-19T09:04:26.331Z,1009.01
2017-11-19T09:05:26.325Z,1008.95
2017-11-19T09:06:26.320Z,1008.95
2017-11-19T09:07:26.310Z,1008.95
2017-11-19T09:08:26.307Z,1008.97
2017-11-19T09:09:26.297Z,1008.98
2017-11-19T09:10:26.288Z,1008.95
2017-11-19T09:11:26.285Z,1008.98
2017-11-19T09:12:26.281Z,1008.96
2017-11-19T09:13:26.278Z,1009.03
2017-11-19T09:14:26.263Z,1009.08
2017-11-19T09:15:26.256Z,1009.07
2017-11-19T09:16:26.257Z,1009.06
2017-11-19T09:17:26.242Z,1009.10
2017-11-19T09:18:26.237Z,1009.10
2017-11-19T09:19:26.229Z,1009.14
2017-11-19T09:20:26.224Z,1009.23
2017-11-19T09:21:26.216Z,1009.20
2017-11-19T09:22:26.213Z,1009.22
2017-11-19T09:23:26.203Z,1009.18
2017-11-19T09:24:26.196Z,1009.22
2017-11-19T09:25:26.193Z,1009.23
2017-11-19T09:26:26.184Z,1009.26
2017-11-19T09:27:26.182Z,1009.21
2017-11-19T09:28:26.179Z,1009.25
2017-11-19T09:29:26.165Z,1009.22
2017-11-19T09:30:26.158Z,1009.25
2017-11-19T09:31:26.150Z,1009.25
2017-11-19T09:32:26.141Z,1009.30
2017-11-19T09:33:26.136Z,1009.35
2017-11-19T09:34:26.132Z,1009.29
2017-11-19T09:35:26.122Z,1009.32
2017-11-19T09:36:26.115Z,1009.36
2017-11-19T09:37:26.108Z,1009.37
2017-11-19T09:38:26.102Z,1009.38
2017-11-19T09:39:26.092Z,1009.38
2017-11-19T09:40:26.088Z,1009.31
2017-11-19T09:41:26.082Z,1009.31
2017-11-19T09:42:26.073Z,1009.35
2017-11-19T09:43:26.067Z,1009.36
2017-11-19T09:44:26.060Z,1009.40
2017-11-19T09:45:26.052Z,1009.39
2017-11-19T09:46:26.046Z,1009.35
2017-11-19T09:47:26.039Z,1009.38
2017-11-19T09:48:26.031Z,1009.39
2017-11-19T09:49:26.027Z,1009.35
2017-11-19T09:50:26.017Z,1009.37
2017-11-19T09:51:26.012Z,1009.43
2017-11-19T09:52:26.006Z,1009.44
2017-11-19T09:53:25.994Z,1009.47
2017-11-19T09:54:25.994Z,1009.45
2017-11-19T09:55:25.985Z,1009.45
2017-11-19T09:56:25.980Z,1009.47
2017-11-19T09:57:25.976Z,1009.43
2017-11-19T09:58:25.967Z,1009.39
2017-11-19T09:59:25.961Z,1009.41
2017-11-19T10:00:25.953Z,1009.42
2017-11-19T10:01:25.947Z,1009.41
2017-11-19T10:02:25.941Z,1009.45
2017-11-19T10:03:25.935Z,1009.45
2017-11-19T10:04:25.929Z,1009.42
2017-11-19T10:05:25.922Z,1009.42
2017-11-19T10:06:25.915Z,1009.41
2017-11-19T10:07:25.910Z,1009.45
2017-11-19T10:08:25.903Z,1009.44
2017-11-19T10:09:25.897Z,1009.44
2017-11-19T10:10:25.888Z,1009.43
2017-11-19T10:11:25.883Z,1009.49
2017-11-19T10:12:25.877Z,1009.48
2017-11-19T10:13:25.872Z,1009.47
2017-11-19T10:14:25.863Z,1009.45
2017-11-19T10:15:25.857Z,1009.39
2017-11-19T10:16:25.853Z,1009.39
2017-11-19T10:17:25.847Z,1009.34
2017-11-19T10:18:25.838Z,1009.38
2017-11-19T10:19:25.836Z,1009.41
2017-11-19T10:20:25.828Z,1009.46
2017-11-19T10:21:25.822Z,1009.48
2017-11-19T10:22:25.810Z,1009.52
2017-11-19T10:23:25.818Z,1009.53
2017-11-19T10:24:25.802Z,1009.57
2017-11-19T10:25:25.798Z,1009.55
2017-11-19T10:26:25.790Z,1009.59
2017-11-19T10:27:25.782Z,1009.58
2017-11-19T10:28:25.778Z,1009.61
2017-11-19T10:29:25.774Z,1009.65
2017-11-19T10:30:25.769Z,1009.64
2017-11-19T10:31:25.759Z,1009.58
2017-11-19T10:32:25.768Z,1009.53
2017-11-19T10:33:25.748Z,1009.50
2017-11-19T10:34:25.738Z,1009.57
2017-11-19T10:35:25.740Z,1009.60
2017-11-19T10:36:25.728Z,1009.58
2017-11-19T10:37:25.721Z,1009.56
2017-11-19T10:38:25.717Z,1009.57
2017-11-19T10:39:25.711Z,1009.55
2017-11-19T10:40:25.705Z,1009.55
2017-11-19T10:41:25.700Z,1009.50
2017-11-19T10:42:25.695Z,1009.54
2017-11-19T10:43:25.686Z,1009.54
2017-11-19T10:44:25.684Z,1009.58
2017-11-19T10:45:25.673Z,1009.54
2017-11-19T10:46:25.667Z,1009.61
2017-11-19T10:47:25.663Z,1009.61
2017-11-19T10:48:25.669Z,1009.67
2017-11-19T10:49:25.651Z,1009.68
2017-11-19T10:50:25.651Z,1009.64
2017-11-19T10:51:25.639Z,1009.64
2017-11-19T10:52:25.632Z,1009.65
2017-11-19T10:53:25.627Z,1009.70
2017-11-19T10:54:25.619Z,1009.66
2017-11-19T10:55:25.615Z,1009.67
2017-11-19T10:56:25.613Z,1009.66
2017-11-19T10:57:25.604Z,1009.67
2017-11-19T10:58:25.597Z,1009.68
2017-11-19T10:59:25.593Z,1009.75
2017-11-19T11:00:25.584Z,1009.70
2017-11-19T11:01:25.581Z,1009.71
2017-11-19T11:02:25.613Z,1009.65
2017-11-19T11:03:25.568Z,1009.73
2017-11-19T11:04:25.563Z,1009.72
2017-11-19T11:05:25.557Z,1009.67
2017-11-19T11:06:25.551Z,1009.71
2017-11-19T11:07:25.546Z,1009.74
2017-11-19T11:08:25.539Z,1009.71
2017-11-19T11:09:25.533Z,1009.74
2017-11-19T11:10:25.525Z,1009.72
2017-11-19T11:11:25.520Z,1009.68
2017-11-19T11:12:25.515Z,1009.67
2017-11-19T11:13:25.508Z,1009.74
2017-11-19T11:14:25.506Z,1009.68
2017-11-19T11:15:25.500Z,1009.64
2017-11-19T11:16:25.496Z,1009.64
2017-11-19T11:17:25.485Z,1009.65
2017-11-19T11:18:25.480Z,1009.65
2017-11-19T11:19:25.481Z,1009.68
2017-11-19T11:20:25.467Z,1009.69
2017-11-19T11:21:25.461Z,1009.67
2017-11-19T11:22:25.454Z,1009.62
2017-11-19T11:23:25.448Z,1009.63
2017-11-19T11:24:25.443Z,1009.59
2017-11-19T11:25:25.438Z,1009.61
2017-11-19T11:26:25.441Z,1009.65
2017-11-19T11:27:25.424Z,1009.68
2017-11-19T11:28:25.426Z,1009.69
2017-11-19T11:29:25.415Z,1009.70
2017-11-19T11:30:25.411Z,1009.66
2017-11-19T11:31:25.402Z,1009.67
2017-11-19T11:32:25.396Z,1009.67
2017-11-19T11:33:25.390Z,1009.67
2017-11-19T11:34:25.384Z,1009.71
2017-11-19T11:35:25.379Z,1009.73
2017-11-19T11:36:25.373Z,1009.68
2017-11-19T11:37:25.367Z,1009.65
2017-11-19T11:38:25.361Z,1009.62
2017-11-19T11:39:25.355Z,1009.63
2017-11-19T11:40:25.349Z,1009.68
2017-11-19T11:41:25.344Z,1009.71
2017-11-19T11:42:25.335Z,1009.77
2017-11-19T11:43:25.331Z,1009.76
2017-11-19T11:44:25.326Z,1009.77
2017-11-19T11:45:25.320Z,1009.70
2017-11-19T11:46:25.342Z,1009.75
2017-11-19T11:47:25.308Z,1009.79
2017-11-19T11:48:25.308Z,1009.78
2017-11-19T11:49:25.308Z,1009.78
2017-11-19T11:50:25.290Z,1009.78
2017-11-19T11:51:25.287Z,1009.78
2017-11-19T11:52:25.280Z,1009.76
2017-11-19T11:53:25.277Z,1009.79
2017-11-19T11:54:25.267Z,1009.84
2017-11-19T11:55:25.261Z,1009.73
2017-11-19T11:56:25.258Z,1009.73
2017-11-19T11:57:25.254Z,1009.70
2017-11-19T11:58:25.257Z,1009.73
2017-11-19T11:59:25.241Z,1009.76
2017-11-19T12:00:25.235Z,1009.74
2017-11-19T12:01:25.229Z,1009.72
2017-11-19T12:02:25.224Z,1009.73
2017-11-19T12:03:25.217Z,1009.81
2017-11-19T12:04:25.210Z,1009.76
2017-11-19T12:05:25.208Z,1009.75